Bartlett, Kansas
Current Conditions -  °F | °C
As of 3:52 AM on Friday 19 Dec 2014 (Local Time) from KCFV Reporting Station
Haze Haze  
Wind Chill: 29°   Ceiling: 500
Heat Index: 35°   Visibility: 4mi
Dew Point: 33°   Wind: 8mph
Humidity: 92%   Direction: 350°N
Pressure: 30.23"   Gusts: NA
Location:  37.05°N, 95.21°W
Report Text: KCFV 190952Z AUTO 35007KT 4SM BR OVC005 02/01 A3023 RMK AO2 SLP242 T00170006
Loading
Personal Weather Stations






























Interactive Weather Map New forecast layout! Learn more

10-Day Weather Forecast

Advertisements
Track Severe Weather on mobile